MMAS/AGU METAR and TAF weather

Enter ICAO airport designator
Station Type Date Time Source
MMAS METAR 2020/06/01 16:40 UTC NOAA

MMAS 011640Z 10006KT 10SM SKC 24/06 A3029


Station Type Date Time Source
MMAS Decoded METAR 2020/06/01 16:40 UTC NOAA

Aguascalientes, Ags., Mexico (MMAS) 21-53N 102-18W
Jun 01, 2020 - 12:40 PM EDT / 2020.06.01 1640 UTC
Wind: from the E (100 degrees) at 7 MPH (6 KT):0
Visibility: 10 mile(s):0
Sky conditions: clear
Temperature: 75 F (24 C)
Dew Point: 42 F (6 C)
Relative Humidity: 31%
Pressure (altimeter): 30.29 in. Hg (1025 hPa)
ob: MMAS 011640Z 10006KT 10SM SKC 24/06 A3029
cycle: 16

Station Type Date Time Source
MMAS TAF 2020/06/01 18:31 UTC NOAA

TAF MMAS 011625Z 0118/0218 03006KT P6SM SCT030
BECMG 0120/0121 03015KT BKN030 BKN090
TEMPO 0122/0202 6SM -TSRA
FM020300 05005KT P6SM SCT030 BKN090
BECMG 0205/0206 09005KT BKN090
FM021200 03005KT 6SM HZ SCT090

Example: see airport list